Time;durP1;ratioP1;P1;durP2;ratioP2;P2;SDS_P1;SDS_P2;PMS_P1;PMS_P2;Temp;Humidity;BMP_temperature;BMP_pressure;BME280_temperature;BME280_humidity;BME280_pressure;Samples;Min_cycle;Max_cycle;Signal;HPM_P1;HPM_P2
2023/07/08 00:01:25;;;;;;;10.70;5.80;;;;;;;11.62;68.38;100454.63;217755;1256;140633;-66
2023/07/08 00:06:30;;;;;;;9.70;6.60;;;;;;;11.52;68.62;100448.44;218266;1256;140511;-67
2023/07/08 00:11:34;;;;;;;8.60;5.90;;;;;;;11.40;68.85;100445.56;218539;1256;140185;-69
2023/07/08 00:16:38;;;;;;;10.30;6.00;;;;;;;11.27;69.13;100444.08;218021;1256;140275;-69
2023/07/08 00:21:43;;;;;;;7.20;5.60;;;;;;;11.16;69.28;100446.41;218140;1256;140485;-69
2023/07/08 00:26:48;;;;;;;7.90;6.70;;;;;;;11.08;69.68;100447.22;219192;1256;140282;-70
2023/07/08 00:31:53;;;;;;;11.30;7.70;;;;;;;11.07;70.02;100447.48;218400;1256;140227;-68
2023/07/08 00:36:58;;;;;;;11.50;6.70;;;;;;;11.08;69.94;100444.63;218544;1260;140734;-69
2023/07/08 00:42:15;;;;;;;11.40;6.50;;;;;;;11.00;69.74;100444.55;219140;1255;140716;-71
2023/07/08 00:47:20;;;;;;;13.60;6.70;;;;;;;10.89;70.09;100448.73;218476;1256;140736;-68
2023/07/08 00:52:27;;;;;;;10.40;6.00;;;;;;;10.79;70.03;100448.67;219805;1256;140555;-67
2023/07/08 00:57:33;;;;;;;;;;;;;;;10.76;70.50;100441.27;220179;1256;140828;-67
2023/07/08 01:02:54;;;;;;;11.10;8.00;;;;;;;10.74;70.55;100444.98;220676;1256;127501;-67
2023/07/08 01:08:03;;;;;;;9.50;6.80;;;;;;;10.66;70.39;100445.35;220367;1256;140778;-66
2023/07/08 01:13:12;;;;;;;7.40;6.10;;;;;;;10.66;70.50;100442.37;218724;1256;141785;-69
2023/07/08 01:18:24;;;;;;;10.50;6.80;;;;;;;10.66;70.62;100433.84;218584;1259;141379;-70
2023/07/08 01:23:29;;;;;;;8.20;6.40;;;;;;;10.60;70.65;100438.96;218965;1256;140442;-68
2023/07/08 01:28:35;;;;;;;14.00;7.70;;;;;;;10.56;70.82;100435.02;218129;1256;141217;-68
2023/07/08 01:33:39;;;;;;;9.10;7.80;;;;;;;10.52;70.93;100434.02;219052;1256;139766;-68
2023/07/08 01:38:44;;;;;;;9.30;8.10;;;;;;;10.47;71.14;100428.60;218680;1256;151814;-70
2023/07/08 01:43:49;;;;;;;13.20;8.00;;;;;;;10.40;71.16;100434.73;218302;1257;140672;-69
2023/07/08 01:48:57;;;;;;;8.70;7.90;;;;;;;10.32;71.53;100428.27;218149;1257;140402;-66
2023/07/08 01:54:02;;;;;;;8.90;6.20;;;;;;;10.25;71.61;100422.83;218893;1256;141908;-67
2023/07/08 01:59:07;;;;;;;8.80;7.80;;;;;;;10.18;71.66;100419.41;218116;1256;140593;-70
2023/07/08 02:04:12;;;;;;;9.90;7.70;;;;;;;10.10;72.25;100421.65;217906;1259;140491;-70
2023/07/08 02:09:16;;;;;;;10.90;7.30;;;;;;;10.04;72.28;100420.48;218485;1256;139972;-70
2023/07/08 02:14:20;;;;;;;8.00;7.20;;;;;;;9.99;72.44;100421.86;217824;1256;139941;-73
2023/07/08 02:19:25;;;;;;;8.70;7.20;;;;;;;9.95;72.46;100418.55;219688;1255;141283;-75
2023/07/08 02:24:30;;;;;;;8.90;8.10;;;;;;;9.91;72.59;100422.15;218474;1256;140779;-68
2023/07/08 02:29:34;;;;;;;10.20;8.30;;;;;;;9.90;72.61;100424.48;219132;1256;139635;-70
2023/07/08 02:34:38;;;;;;;11.20;7.30;;;;;;;9.87;72.71;100424.67;218920;1256;139949;-69
2023/07/08 02:39:43;;;;;;;13.70;9.30;;;;;;;9.81;72.72;100421.66;217945;1259;140291;-70
2023/07/08 02:44:47;;;;;;;7.70;6.80;;;;;;;9.77;72.87;100416.00;219540;1256;140698;-71
2023/07/08 02:49:52;;;;;;;7.50;6.50;;;;;;;9.71;73.06;100412.02;218525;1256;139515;-72
2023/07/08 02:54:56;;;;;;;14.50;7.70;;;;;;;9.67;73.13;100413.92;219465;1256;142059;-68
2023/07/08 03:00:00;;;;;;;8.00;6.70;;;;;;;9.64;73.52;100416.76;219057;1256;140103;-71
2023/07/08 03:05:05;;;;;;;9.50;6.90;;;;;;;9.71;74.06;100416.73;218305;1256;140047;-68
2023/07/08 03:10:10;;;;;;;9.70;7.40;;;;;;;9.76;73.79;100425.92;218957;1256;141766;-67
2023/07/08 03:15:14;;;;;;;29.80;7.70;;;;;;;9.75;73.95;100426.63;218010;1256;140231;-66
2023/07/08 03:20:19;;;;;;;12.50;7.10;;;;;;;9.79;74.15;100428.14;218352;1257;140286;-66
2023/07/08 03:25:22;;;;;;;6.50;5.90;;;;;;;9.86;74.09;100426.19;218078;1256;140798;-67
2023/07/08 03:30:27;;;;;;;6.70;6.00;;;;;;;9.91;74.39;100431.69;219012;1256;142365;-71
2023/07/08 03:35:31;;;;;;;13.30;7.70;;;;;;;9.98;74.51;100431.45;218942;1256;139852;-71
2023/07/08 03:40:36;;;;;;;17.60;7.40;;;;;;;10.06;74.58;100429.23;217894;1257;139855;-68
2023/07/08 03:45:41;;;;;;;10.30;5.50;;;;;;;10.21;74.77;100429.27;218366;1257;140345;-67
2023/07/08 03:50:48;;;;;;;;;;;;;;;10.51;74.82;100429.96;218626;1256;143162;-67
2023/07/08 03:55:53;;;;;;;11.80;6.60;;;;;;;10.77;74.92;100434.05;218781;1257;126570;-67
2023/07/08 04:00:57;;;;;;;10.60;7.30;;;;;;;11.18;74.90;100434.73;218196;1260;141216;-67
2023/07/08 04:06:02;;;;;;;9.60;6.40;;;;;;;11.50;74.98;100440.16;218466;1259;140798;-67
2023/07/08 04:11:11;;;;;;;14.20;6.70;;;;;;;11.83;74.83;100436.77;218558;1256;141140;-68
2023/07/08 04:16:28;;;;;;;7.50;6.40;;;;;;;12.05;74.79;100434.09;219506;1256;141354;-69
2023/07/08 04:21:33;;;;;;;7.10;5.80;;;;;;;12.29;74.98;100435.54;218151;1256;140331;-69
2023/07/08 04:26:39;;;;;;;7.60;6.60;;;;;;;13.23;74.18;100438.31;218798;1255;140262;-70
2023/07/08 04:31:44;;;;;;;6.10;4.50;;;;;;;13.84;74.26;100430.42;218883;1257;140733;-71
2023/07/08 04:36:49;;;;;;;9.40;6.30;;;;;;;14.87;73.48;100427.38;217978;1256;140601;-70
2023/07/08 04:41:53;;;;;;;7.60;6.40;;;;;;;15.33;72.85;100429.15;218685;1256;140431;-70
2023/07/08 04:46:59;;;;;;;6.90;5.60;;;;;;;16.69;71.03;100431.23;219588;1256;139965;-70
2023/07/08 04:52:05;;;;;;;6.90;5.70;;;;;;;17.75;70.03;100430.84;219494;1257;141142;-69
2023/07/08 04:57:09;;;;;;;6.20;5.60;;;;;;;18.64;68.45;100428.90;219986;1257;142027;-70
2023/07/08 05:02:14;;;;;;;4.30;3.90;;;;;;;19.00;67.37;100427.34;219860;1257;140088;-69
2023/07/08 05:07:18;;;;;;;6.60;5.50;;;;;;;19.59;66.05;100426.05;218998;1256;140352;-68
2023/07/08 05:12:22;;;;;;;6.50;4.60;;;;;;;20.40;64.62;100423.45;219301;1256;142370;-68
2023/07/08 05:17:27;;;;;;;5.20;4.50;;;;;;;23.27;60.96;100419.82;219090;1257;139870;-68
2023/07/08 05:22:33;;;;;;;6.30;4.60;;;;;;;27.16;56.27;100417.83;218896;1257;139828;-69
2023/07/08 05:27:39;;;;;;;3.30;3.10;;;;;;;30.90;51.55;100413.58;219163;1256;139999;-69
2023/07/08 05:32:45;;;;;;;4.30;2.40;;;;;;;33.71;46.14;100413.31;218149;1257;139518;-69
2023/07/08 05:37:50;;;;;;;2.40;2.20;;;;;;;35.77;41.37;100416.14;218295;1257;139559;-70
2023/07/08 05:42:58;;;;;;;1.50;1.40;;;;;;;37.17;36.95;100411.77;218091;1257;140142;-71
2023/07/08 05:48:10;;;;;;;4.60;2.20;;;;;;;37.96;33.48;100411.46;218390;1257;140712;-69
2023/07/08 05:53:20;;;;;;;2.30;2.00;;;;;;;38.66;31.62;100403.59;217962;1257;140415;-69
2023/07/08 05:58:28;;;;;;;2.60;1.90;;;;;;;39.72;29.75;100398.40;217982;1257;139401;-68
2023/07/08 06:03:38;;;;;;;1.60;1.10;;;;;;;40.45;27.98;100393.15;218121;1260;139884;-68
2023/07/08 06:08:45;;;;;;;1.20;1.20;;;;;;;41.68;26.92;100390.11;217737;1257;141699;-68
2023/07/08 06:13:51;;;;;;;2.20;1.80;;;;;;;42.47;25.61;100386.21;217704;1259;138982;-69
2023/07/08 06:18:57;;;;;;;1.90;1.70;;;;;;;42.79;24.45;100389.75;218847;1257;140045;-69
2023/07/08 06:24:03;;;;;;;1.30;1.30;;;;;;;42.74;23.25;100389.16;217601;1259;139468;-69
2023/07/08 06:29:09;;;;;;;1.40;1.20;;;;;;;42.90;22.94;100393.95;218355;1256;139196;-70
2023/07/08 06:34:14;;;;;;;1.80;1.60;;;;;;;43.17;21.94;100394.48;217875;1256;140142;-69
2023/07/08 06:39:20;;;;;;;1.70;1.40;;;;;;;43.14;21.36;100391.84;220281;1256;140176;-69
2023/07/08 06:44:31;;;;;;;1.90;1.20;;;;;;;43.36;21.16;100391.64;220357;1257;138993;-69
2023/07/08 06:49:36;;;;;;;1.50;1.00;;;;;;;43.73;20.70;100393.60;220354;1257;140027;-70
2023/07/08 06:54:46;;;;;;;1.50;1.40;;;;;;;43.56;19.99;100391.65;218459;1259;139134;-69
2023/07/08 06:59:51;;;;;;;1.30;1.30;;;;;;;42.87;19.74;100390.11;217567;1257;138994;-66
2023/07/08 07:04:55;;;;;;;1.00;1.00;;;;;;;43.33;20.40;100387.84;219379;1257;141279;-68
2023/07/08 07:10:02;;;;;;;2.50;1.00;;;;;;;43.93;19.95;100387.07;218655;1257;139772;-68
2023/07/08 07:15:09;;;;;;;0.80;0.80;;;;;;;44.36;19.22;100385.92;218651;1257;139880;-67
2023/07/08 07:20:16;;;;;;;1.40;1.20;;;;;;;43.98;18.77;100388.13;219245;1257;140049;-67
2023/07/08 07:25:22;;;;;;;0.90;0.90;;;;;;;43.50;18.73;100389.73;219439;1256;139637;-67
2023/07/08 07:30:32;;;;;;;1.00;0.90;;;;;;;42.13;19.05;100388.58;218677;1257;139033;-69
2023/07/08 07:35:41;;;;;;;1.30;1.20;;;;;;;40.54;19.73;100383.82;217682;1257;140669;-68
2023/07/08 07:40:46;;;;;;;1.80;1.30;;;;;;;39.41;20.67;100389.17;217546;1257;140197;-67
2023/07/08 07:45:52;;;;;;;1.40;1.20;;;;;;;38.68;20.83;100389.98;218146;1259;139211;-66
2023/07/08 07:50:57;;;;;;;2.90;1.00;;;;;;;38.26;21.33;100387.27;217803;1260;139435;-67
2023/07/08 07:56:04;;;;;;;1.10;1.10;;;;;;;37.63;22.06;100391.14;218009;1259;141515;-67
2023/07/08 08:01:09;;;;;;;3.80;1.30;;;;;;;37.45;22.28;100386.90;218929;1257;139838;-67
2023/07/08 08:06:17;;;;;;;3.00;1.30;;;;;;;37.04;22.31;100382.63;218595;1257;139425;-69
2023/07/08 08:11:25;;;;;;;1.50;1.40;;;;;;;36.78;22.59;100376.68;218140;1257;140473;-67
2023/07/08 08:16:30;;;;;;;3.90;1.30;;;;;;;35.99;22.65;100368.41;219321;1257;140689;-68
2023/07/08 08:21:35;;;;;;;1.30;1.30;;;;;;;35.16;23.13;100368.58;219377;1259;139601;-68
2023/07/08 08:26:41;;;;;;;2.10;1.20;;;;;;;34.69;23.67;100376.58;218140;1259;140173;-66
2023/07/08 08:31:45;;;;;;;1.40;1.30;;;;;;;34.81;24.12;100385.48;219028;1256;140553;-66
2023/07/08 08:36:50;;;;;;;7.50;2.20;;;;;;;34.93;24.43;100382.02;220244;1257;139371;-66
2023/07/08 08:41:56;;;;;;;1.70;1.40;;;;;;;34.82;24.11;100379.23;220239;1257;140800;-67
2023/07/08 08:47:38;;;;;;;1.50;1.40;;;;;;;34.54;24.72;100379.20;220425;1259;139346;-68
2023/07/08 08:52:46;;;;;;;1.50;1.40;;;;;;;34.54;24.24;100374.14;218727;1257;139998;-68
2023/07/08 08:58:14;;;;;;;3.30;1.90;;;;;;;34.44;24.32;100376.27;220582;1257;139672;-67
2023/07/08 09:03:34;;;;;;;6.00;2.10;;;;;;;34.17;24.17;100377.92;219539;1257;140277;-65
2023/07/08 09:08:41;;;;;;;3.40;2.00;;;;;;;33.96;23.99;100373.40;219131;1257;139532;-65
2023/07/08 09:13:45;;;;;;;10.00;2.20;;;;;;;33.94;24.60;100375.60;219246;1257;140536;-67
2023/07/08 09:19:00;;;;;;;4.60;1.60;;;;;;;33.82;24.53;100374.48;218544;1259;139462;-67
2023/07/08 09:24:15;;;;;;;2.10;1.60;;;;;;;33.74;25.06;100366.17;218656;1257;140412;-68
2023/07/08 09:29:21;;;;;;;25.80;3.10;;;;;;;33.77;24.47;100362.34;218444;1260;140485;-65
2023/07/08 09:34:41;;;;;;;2.20;2.00;;;;;;;33.74;24.73;100360.39;218803;1256;139894;-66
2023/07/08 09:39:44;;;;;;;4.80;2.00;;;;;;;33.66;24.60;100355.31;218979;1257;140229;-67
2023/07/08 09:44:48;;;;;;;1.70;1.60;;;;;;;33.51;24.57;100346.52;218024;1257;139176;-69
2023/07/08 09:49:54;;;;;;;2.30;1.70;;;;;;;33.45;24.67;100342.64;218450;1259;140791;-68
2023/07/08 09:55:02;;;;;;;2.90;1.60;;;;;;;33.37;24.91;100340.31;218532;1259;139171;-68
2023/07/08 10:00:19;;;;;;;5.10;2.00;;;;;;;33.30;24.80;100336.84;218155;1256;139666;-66
2023/07/08 10:05:33;;;;;;;1.60;1.50;;;;;;;33.26;24.90;100335.66;218378;1260;139457;-66
2023/07/08 10:10:39;;;;;;;1.50;1.40;;;;;;;33.05;25.08;100327.52;217832;1260;139431;-67
2023/07/08 10:15:55;;;;;;;14.00;2.90;;;;;;;32.99;25.17;100323.42;217954;1257;140480;-67
2023/07/08 10:21:26;;;;;;;2.90;2.70;;;;;;;32.97;24.92;100328.90;217843;1257;139422;-66
2023/07/08 10:26:35;;;;;;;2.60;2.40;;;;;;;32.94;25.30;100322.70;219261;1257;139164;-67
2023/07/08 10:31:46;;;;;;;6.30;2.00;;;;;;;32.98;25.33;100314.71;218560;1260;139675;-66
2023/07/08 10:37:11;;;;;;;2.20;2.00;;;;;;;32.97;25.07;100313.21;219753;1260;139197;-68
2023/07/08 10:42:37;;;;;;;2.10;1.50;;;;;;;32.94;24.85;100302.73;218680;1260;180217;-69
2023/07/08 10:48:16;;;;;;;2.20;1.80;;;;;;;32.98;25.01;100302.41;219878;1257;139688;-70
2023/07/08 10:53:58;;;;;;;4.00;2.30;;;;;;;32.78;24.36;100295.36;220462;1256;139717;-70
2023/07/08 10:59:38;;;;;;;1.90;1.80;;;;;;;32.53;25.04;100302.20;220057;1258;140496;-69
2023/07/08 11:04:56;;;;;;;2.10;2.00;;;;;;;32.71;24.91;100294.63;219461;1260;139797;-68
2023/07/08 11:10:23;;;;;;;1.90;1.80;;;;;;;32.76;25.22;100292.41;218235;1260;139230;-67
2023/07/08 11:15:41;;;;;;;1.60;1.50;;;;;;;32.53;25.66;100282.89;217818;1259;139380;-67
2023/07/08 11:20:53;;;;;;;2.40;2.20;;;;;;;32.48;25.82;100288.79;219463;1260;140050;-68
2023/07/08 11:26:24;;;;;;;2.80;2.40;;;;;;;32.64;25.30;100284.80;219121;1256;140968;-67
2023/07/08 11:31:34;;;;;;;2.00;1.50;;;;;;;32.67;25.29;100277.76;218576;1260;139772;-67
2023/07/08 11:36:39;;;;;;;2.30;2.10;;;;;;;32.71;25.53;100270.17;218714;1257;139191;-68
2023/07/08 11:41:48;;;;;;;2.50;2.40;;;;;;;32.66;25.74;100265.21;219122;1257;140397;-67
2023/07/08 11:46:56;;;;;;;4.70;2.30;;;;;;;32.70;25.45;100262.42;218172;1257;138985;-68
2023/07/08 11:52:03;;;;;;;3.30;2.00;;;;;;;32.75;25.12;100254.94;218571;1260;139461;-68
2023/07/08 11:57:16;;;;;;;2.30;2.10;;;;;;;32.79;24.99;100257.84;218326;1260;139348;-68
2023/07/08 12:02:26;;;;;;;36.40;4.60;;;;;;;32.55;24.68;100250.05;217870;1258;139933;-67
2023/07/08 12:07:40;;;;;;;4.00;3.00;;;;;;;32.23;25.04;100244.61;217929;1260;140788;-67
2023/07/08 12:12:46;;;;;;;3.10;2.70;;;;;;;32.07;25.34;100241.02;218425;1256;139167;-68
2023/07/08 12:18:25;;;;;;;2.80;2.40;;;;;;;31.49;24.99;100234.84;218299;1260;139470;-67
2023/07/08 12:23:32;;;;;;;2.10;1.90;;;;;;;31.33;26.18;100237.04;218607;1260;139984;-67
2023/07/08 12:28:40;;;;;;;3.00;2.70;;;;;;;31.30;26.44;100228.70;218711;1257;140963;-68
2023/07/08 12:33:44;;;;;;;3.30;2.80;;;;;;;31.50;26.37;100224.63;219130;1258;139274;-67
2023/07/08 12:38:50;;;;;;;10.10;2.70;;;;;;;31.59;26.06;100226.53;220195;1257;140403;-68
2023/07/08 12:43:55;;;;;;;2.60;2.40;;;;;;;31.57;25.89;100224.29;220288;1257;140217;-68
2023/07/08 12:48:59;;;;;;;3.40;1.70;;;;;;;31.64;25.86;100217.77;220291;1260;139322;-68
2023/07/08 12:54:04;;;;;;;2.50;2.30;;;;;;;31.74;25.90;100214.66;220369;1257;141975;-68
2023/07/08 12:59:12;;;;;;;2.60;2.40;;;;;;;31.79;25.80;100209.95;220364;1258;139274;-68
2023/07/08 13:04:18;;;;;;;2.90;2.60;;;;;;;31.66;25.77;100208.36;218141;1260;139497;-67
2023/07/08 13:09:34;;;;;;;6.00;2.70;;;;;;;31.36;25.83;100199.71;219857;1257;139100;-68
2023/07/08 13:14:43;;;;;;;3.00;2.70;;;;;;;31.30;25.70;100187.71;218410;1257;140289;-67
2023/07/08 13:19:49;;;;;;;4.10;2.00;;;;;;;31.38;25.68;100184.50;219624;1257;139700;-68
2023/07/08 13:25:02;;;;;;;2.90;2.70;;;;;;;31.27;25.90;100186.78;218194;1257;139886;-66
2023/07/08 13:30:20;;;;;;;2.10;1.80;;;;;;;31.24;25.58;100190.80;218823;1257;139578;-67
2023/07/08 13:35:36;;;;;;;5.00;3.00;;;;;;;31.28;25.78;100185.92;219024;1259;140218;-67
2023/07/08 13:40:48;;;;;;;2.70;2.50;;;;;;;31.32;25.38;100176.27;217610;1257;139492;-67
2023/07/08 13:45:52;;;;;;;2.60;2.40;;;;;;;31.37;25.89;100181.33;218157;1257;140350;-67
2023/07/08 13:51:06;;;;;;;3.00;2.50;;;;;;;31.20;25.45;100174.42;217721;1258;139819;-67
2023/07/08 13:56:19;;;;;;;2.90;2.70;;;;;;;31.02;25.05;100170.02;217885;1257;139823;-67
2023/07/08 14:01:25;;;;;;;5.10;2.70;;;;;;;31.13;25.58;100167.77;218371;1257;139823;-67
2023/07/08 14:06:38;;;;;;;4.50;2.80;;;;;;;31.21;25.16;100158.02;219171;1257;140545;-67
2023/07/08 14:11:45;;;;;;;3.70;2.30;;;;;;;31.20;25.39;100154.05;217817;1260;140674;-67
2023/07/08 14:16:52;;;;;;;2.70;2.60;;;;;;;31.18;25.60;100152.69;219161;1257;140228;-67
2023/07/08 14:22:01;;;;;;;7.40;2.60;;;;;;;31.22;25.59;100154.33;217893;1260;140327;-68
2023/07/08 14:27:14;;;;;;;2.70;2.30;;;;;;;31.21;25.44;100153.68;218534;1257;141611;-67
2023/07/08 14:32:30;;;;;;;3.90;2.80;;;;;;;31.13;25.46;100150.69;218083;1258;139359;-68
2023/07/08 14:37:35;;;;;;;3.80;3.10;;;;;;;31.06;25.31;100137.86;219109;1257;141138;-69
2023/07/08 14:42:41;;;;;;;3.50;3.10;;;;;;;31.11;25.66;100136.82;217901;1257;139329;-66
2023/07/08 14:47:46;;;;;;;2.70;2.50;;;;;;;31.09;25.57;100133.77;219737;1256;140165;-68
2023/07/08 14:52:52;;;;;;;3.60;2.90;;;;;;;31.07;25.70;100133.79;220102;1257;140139;-68
2023/07/08 14:58:00;;;;;;;4.30;2.50;;;;;;;31.08;25.81;100129.49;220197;1257;138948;-69
2023/07/08 15:03:04;;;;;;;6.60;2.30;;;;;;;30.94;25.79;100126.14;220194;1256;140024;-69
2023/07/08 15:08:10;;;;;;;3.50;3.20;;;;;;;30.56;26.24;100123.27;219548;1256;141436;-68
2023/07/08 15:13:18;;;;;;;2.40;2.30;;;;;;;30.37;26.52;100121.95;218491;1257;141221;-68
2023/07/08 15:18:26;;;;;;;2.80;2.60;;;;;;;30.44;27.25;100115.75;218913;1256;139403;-68
2023/07/08 15:23:32;;;;;;;3.80;3.00;;;;;;;30.42;26.58;100111.61;218782;1256;140737;-68
2023/07/08 15:28:47;;;;;;;4.80;3.30;;;;;;;30.37;26.42;100110.23;217698;1257;139440;-67
2023/07/08 15:33:53;;;;;;;;;;;;;;;30.33;26.74;100109.36;219042;1256;139253;-67
2023/07/08 15:38:58;;;;;;;2.60;2.40;;;;;;;30.22;27.12;100108.65;219297;1257;126108;-68
2023/07/08 15:44:03;;;;;;;7.20;3.10;;;;;;;30.16;27.57;100110.09;218420;1256;139563;-69
2023/07/08 15:49:19;;;;;;;2.70;2.60;;;;;;;30.14;27.86;100103.05;217898;1256;139035;-68
2023/07/08 15:54:23;;;;;;;3.20;2.70;;;;;;;30.10;27.90;100101.91;217854;1260;140038;-68
2023/07/08 15:59:30;;;;;;;3.20;3.00;;;;;;;30.18;27.48;100104.77;218064;1256;138840;-68
2023/07/08 16:04:35;;;;;;;2.70;2.40;;;;;;;30.07;27.40;100102.56;218943;1259;139943;-67
2023/07/08 16:09:40;;;;;;;6.60;2.80;;;;;;;30.02;27.52;100102.65;218051;1257;139720;-68
2023/07/08 16:14:44;;;;;;;3.40;3.20;;;;;;;29.99;27.18;100099.36;218422;1257;139687;-69
2023/07/08 16:19:47;;;;;;;3.80;2.40;;;;;;;29.84;27.39;100100.47;219037;1256;139226;-68
2023/07/08 16:24:52;;;;;;;3.30;3.10;;;;;;;29.71;27.95;100100.94;219354;1256;140515;-68
2023/07/08 16:29:56;;;;;;;2.70;2.60;;;;;;;29.62;28.38;100099.86;218380;1256;140066;-68
2023/07/08 16:35:00;;;;;;;7.90;3.70;;;;;;;29.43;28.56;100092.59;219105;1256;139223;-68
2023/07/08 16:40:09;;;;;;;;;;;;;;;29.11;29.79;100095.32;219923;1257;139952;-68
2023/07/08 16:45:18;;;;;;;3.50;3.30;;;;;;;28.77;30.62;100097.95;220788;1256;126068;-68
2023/07/08 16:50:28;;;;;;;2.80;2.60;;;;;;;28.66;31.03;100097.13;218865;1256;139914;-67
2023/07/08 16:55:32;;;;;;;2.90;2.70;;;;;;;28.64;31.12;100095.33;219734;1256;140778;-67
2023/07/08 17:00:36;;;;;;;5.20;3.00;;;;;;;28.61;31.32;100093.07;220525;1256;139938;-68
2023/07/08 17:05:42;;;;;;;3.10;2.80;;;;;;;28.56;32.53;100096.67;218625;1256;140457;-66
2023/07/08 17:10:47;;;;;;;6.00;3.60;;;;;;;28.48;33.22;100094.48;218724;1256;139967;-67
2023/07/08 17:15:53;;;;;;;3.40;3.10;;;;;;;28.40;33.16;100094.16;219517;1256;140687;-68
2023/07/08 17:21:02;;;;;;;4.10;3.00;;;;;;;28.28;34.05;100090.27;220151;1256;139189;-68
2023/07/08 17:26:07;;;;;;;4.40;3.00;;;;;;;28.12;34.94;100091.36;218745;1256;139141;-67
2023/07/08 17:31:20;;;;;;;3.00;2.50;;;;;;;27.93;34.49;100094.59;218630;1257;139227;-69
2023/07/08 17:36:40;;;;;;;3.10;2.90;;;;;;;27.73;34.71;100091.75;218024;1259;140117;-67
2023/07/08 17:41:48;;;;;;;3.00;2.80;;;;;;;27.54;35.29;100099.39;218622;1256;140075;-67
2023/07/08 17:47:01;;;;;;;3.20;2.90;;;;;;;27.32;35.29;100093.98;218440;1256;140144;-67
2023/07/08 17:52:10;;;;;;;2.60;2.20;;;;;;;27.11;35.80;100093.55;217846;1256;141774;-67
2023/07/08 17:57:21;;;;;;;3.50;3.10;;;;;;;26.87;36.10;100094.46;218406;1256;139215;-66
2023/07/08 18:02:25;;;;;;;3.20;2.60;;;;;;;26.64;36.82;100094.61;218893;1256;139033;-67
2023/07/08 18:07:30;;;;;;;8.00;2.70;;;;;;;26.38;36.77;100093.98;218883;1257;139703;-67
2023/07/08 18:12:35;;;;;;;5.30;3.40;;;;;;;26.12;37.30;100093.95;219395;1256;142272;-67
2023/07/08 18:17:43;;;;;;;3.60;3.20;;;;;;;25.84;37.63;100093.05;218205;1257;140109;-67
2023/07/08 18:22:51;;;;;;;41.40;5.30;;;;;;;25.54;38.26;100096.02;218819;1256;139963;-66
2023/07/08 18:27:57;;;;;;;5.60;3.70;;;;;;;25.26;39.28;100095.67;218726;1256;141546;-67
2023/07/08 18:33:01;;;;;;;63.60;7.20;;;;;;;24.96;39.51;100101.23;219595;1257;138968;-68
2023/07/08 18:38:06;;;;;;;3.40;3.20;;;;;;;24.66;40.20;100105.86;219650;1256;140433;-68
2023/07/08 18:43:20;;;;;;;4.70;3.00;;;;;;;24.35;40.63;100113.27;220398;1256;139798;-68
2023/07/08 18:48:27;;;;;;;5.50;3.80;;;;;;;24.03;40.85;100121.36;220510;1256;143042;-68
2023/07/08 18:53:32;;;;;;;5.30;3.60;;;;;;;23.77;41.36;100123.47;220566;1256;139575;-67
2023/07/08 18:58:38;;;;;;;8.60;4.10;;;;;;;23.51;41.84;100125.21;218340;1256;140606;-67
2023/07/08 19:03:44;;;;;;;6.30;3.90;;;;;;;23.23;42.70;100130.23;218895;1256;139452;-68
2023/07/08 19:08:48;;;;;;;15.90;5.20;;;;;;;22.95;43.78;100129.72;219040;1256;139288;-67
2023/07/08 19:13:52;;;;;;;4.60;4.10;;;;;;;22.71;44.65;100144.20;219152;1256;140080;-66
2023/07/08 19:18:56;;;;;;;7.00;3.80;;;;;;;22.49;45.68;100150.91;218777;1256;140496;-67
2023/07/08 19:24:02;;;;;;;6.70;4.70;;;;;;;22.27;46.25;100148.71;217868;1257;139260;-67
2023/07/08 19:29:09;;;;;;;4.60;4.10;;;;;;;21.98;46.91;100156.80;218838;1256;140023;-66
2023/07/08 19:34:16;;;;;;;4.50;4.10;;;;;;;21.71;47.47;100159.27;217718;1256;139967;-66
2023/07/08 19:39:21;;;;;;;7.50;4.10;;;;;;;21.46;48.02;100160.64;218248;1256;139662;-67
2023/07/08 19:44:26;;;;;;;6.80;3.80;;;;;;;21.19;48.42;100158.70;218391;1256;139306;-67
2023/07/08 19:49:31;;;;;;;6.40;4.50;;;;;;;20.90;49.00;100161.62;218558;1256;139872;-66
2023/07/08 19:54:37;;;;;;;9.80;4.10;;;;;;;20.60;49.30;100163.49;218399;1256;139843;-67
2023/07/08 19:59:42;;;;;;;7.40;4.30;;;;;;;20.35;49.68;100168.66;218067;1257;139290;-69
2023/07/08 20:04:48;;;;;;;6.00;5.10;;;;;;;20.06;50.12;100166.78;218371;1260;139472;-67
2023/07/08 20:09:54;;;;;;;5.30;4.90;;;;;;;19.79;50.39;100169.72;218710;1256;139347;-66
2023/07/08 20:15:00;;;;;;;5.70;5.10;;;;;;;19.59;50.95;100170.21;218978;1256;140762;-74
2023/07/08 20:20:22;;;;;;;9.30;4.70;;;;;;;19.38;51.16;100171.38;218380;1257;139592;-64
2023/07/08 20:25:29;;;;;;;8.10;4.00;;;;;;;19.12;51.54;100172.28;217949;1256;139565;-66
2023/07/08 20:30:38;;;;;;;8.90;5.30;;;;;;;18.96;52.19;100171.41;219033;1256;139855;-66
2023/07/08 20:35:50;;;;;;;4.40;4.10;;;;;;;18.85;52.52;100173.85;220126;1256;140064;-62
2023/07/08 20:40:56;;;;;;;5.60;5.10;;;;;;;18.69;52.84;100175.38;220521;1256;139747;-64
2023/07/08 20:46:18;;;;;;;5.90;5.30;;;;;;;18.56;53.14;100185.59;220045;1256;139950;-64
2023/07/08 20:51:26;;;;;;;5.90;5.10;;;;;;;18.38;53.50;100185.36;219334;1256;139509;-64
2023/07/08 20:56:33;;;;;;;5.30;4.80;;;;;;;18.22;53.91;100185.52;220099;1257;140042;-66
2023/07/08 21:01:38;;;;;;;;;;;;;;;17.98;54.21;100186.65;219832;1256;139870;-66
2023/07/08 21:06:45;;;;;;;5.30;4.90;;;;;;;17.81;54.94;100185.70;220288;1256;126831;-68
2023/07/08 21:11:50;;;;;;;10.70;5.20;;;;;;;17.74;55.27;100186.57;217773;1256;140148;-68
2023/07/08 21:16:54;;;;;;;8.50;5.40;;;;;;;17.62;55.74;100184.63;218870;1256;139659;-67
2023/07/08 21:22:00;;;;;;;12.90;6.50;;;;;;;17.45;56.30;100190.31;218962;1257;139709;-66
2023/07/08 21:27:20;;;;;;;9.20;5.90;;;;;;;17.30;56.67;100192.73;218444;1259;139125;-67
2023/07/08 21:32:26;;;;;;;6.90;6.20;;;;;;;17.11;57.10;100195.99;218560;1256;139465;-69
2023/07/08 21:37:35;;;;;;;13.20;6.40;;;;;;;16.87;57.69;100198.29;218911;1256;139493;-66
2023/07/08 21:42:41;;;;;;;8.40;5.60;;;;;;;16.70;58.25;100201.68;217909;1257;141691;-65
2023/07/08 21:47:50;;;;;;;10.40;6.40;;;;;;;16.61;58.85;100205.16;217918;1256;139442;-65
2023/07/08 21:53:02;;;;;;;9.20;6.40;;;;;;;16.55;59.26;100207.61;217818;1257;139347;-66
2023/07/08 21:58:11;;;;;;;14.40;7.20;;;;;;;16.35;59.56;100208.55;218538;1256;139870;-66
2023/07/08 22:03:24;;;;;;;10.60;6.80;;;;;;;16.18;60.07;100211.09;218861;1256;140369;-67
2023/07/08 22:08:32;;;;;;;8.80;6.40;;;;;;;16.10;60.56;100204.54;217909;1256;139869;-68
2023/07/08 22:13:39;;;;;;;9.50;6.30;;;;;;;16.04;60.96;100203.68;218650;1256;140010;-65
2023/07/08 22:18:46;;;;;;;;;;;;;;;15.97;61.34;100203.26;217660;1257;140070;-63
2023/07/08 22:23:53;;;;;;;10.60;7.10;;;;;;;15.82;61.78;100202.46;219766;1257;126076;-64
2023/07/08 22:29:02;;;;;;;;;;;;;;;15.76;62.03;100202.73;217741;1259;139502;-67
2023/07/08 22:34:18;;;;;;;23.20;8.50;;;;;;;15.59;62.29;100207.31;220806;1256;128406;-70
2023/07/08 22:39:24;;;;;;;15.50;7.40;;;;;;;15.52;62.67;100212.14;219893;1256;564011;-66
2023/07/08 22:44:29;;;;;;;15.90;7.90;;;;;;;15.51;62.87;100213.69;220385;1257;141817;-66
2023/07/08 22:49:34;;;;;;;19.10;9.20;;;;;;;15.45;63.19;100218.02;218283;1257;140450;-67
2023/07/08 22:54:39;;;;;;;17.10;9.00;;;;;;;15.38;63.38;100214.95;220108;1257;140594;-67
2023/07/08 22:59:43;;;;;;;13.60;9.10;;;;;;;15.22;63.60;100216.38;218963;1257;141787;-65
2023/07/08 23:04:48;;;;;;;13.30;9.70;;;;;;;15.08;63.87;100209.65;218152;1259;141860;-66
2023/07/08 23:09:56;;;;;;;15.30;9.80;;;;;;;15.01;64.51;100208.50;218559;1256;140557;-66
2023/07/08 23:15:01;;;;;;;22.20;10.30;;;;;;;15.02;64.67;100207.97;219420;1256;140786;-67
2023/07/08 23:20:19;;;;;;;13.70;10.00;;;;;;;15.02;64.82;100211.09;218050;1257;141021;-67